Time;durP1;ratioP1;P1;durP2;ratioP2;P2;SDS_P1;SDS_P2;PMS_P1;PMS_P2;Temp;Humidity;BMP_temperature;BMP_pressure;BME280_temperature;BME280_humidity;BME280_pressure;Samples;Min_cycle;Max_cycle;Signal;HPM_P1;HPM_P2
2022/09/19 00:00:35;;;;;;;0.9;0.6;;;;;;;;;;;;;
2022/09/19 00:03:02;;;;;;;1.5;0.9;;;;;;;;;;;;;
2022/09/19 00:05:27;;;;;;;1.5;0.7;;;;;;;;;;;;;
2022/09/19 00:07:53;;;;;;;0.9;0.8;;;;;;;;;;;;;
2022/09/19 00:10:18;;;;;;;1.8;0.8;;;;;;;;;;;;;
2022/09/19 00:12:45;;;;;;;0.7;0.7;;;;;;;;;;;;;
2022/09/19 00:15:11;;;;;;;1;0.8;;;;;;;;;;;;;
2022/09/19 00:17:36;;;;;;;1.3;0.9;;;;;;;;;;;;;
2022/09/19 00:20:02;;;;;;;0.7;0.7;;;;;;;;;;;;;
2022/09/19 00:22:27;;;;;;;0.9;0.8;;;;;;;;;;;;;
2022/09/19 00:24:53;;;;;;;0.8;0.8;;;;;;;;;;;;;
2022/09/19 00:27:19;;;;;;;1.7;0.7;;;;;;;;;;;;;
2022/09/19 00:29:45;;;;;;;1.4;0.7;;;;;;;;;;;;;
2022/09/19 00:32:11;;;;;;;1.1;0.8;;;;;;;;;;;;;
2022/09/19 00:34:37;;;;;;;0.7;0.6;;;;;;;;;;;;;
2022/09/19 00:37:01;;;;;;;1;0.9;;;;;;;;;;;;;
2022/09/19 00:39:28;;;;;;;1.1;0.6;;;;;;;;;;;;;
2022/09/19 00:44:19;;;;;;;1.2;0.7;;;;;;;;;;;;;
2022/09/19 00:46:53;;;;;;;2;0.9;;;;;;;;;;;;;
2022/09/19 00:49:19;;;;;;;2.6;0.8;;;;;;;;;;;;;
2022/09/19 00:51:46;;;;;;;1.3;0.9;;;;;;;;;;;;;
2022/09/19 00:54:11;;;;;;;1.5;0.8;;;;;;;;;;;;;
2022/09/19 00:56:36;;;;;;;1.1;0.6;;;;;;;;;;;;;
2022/09/19 00:59:01;;;;;;;1.1;0.8;;;;;;;;;;;;;
2022/09/19 01:01:26;;;;;;;1.3;0.7;;;;;;;;;;;;;
2022/09/19 01:03:55;;;;;;;0.7;0.5;;;;;;;;;;;;;
2022/09/19 01:06:19;;;;;;;1.3;0.6;;;;;;;;;;;;;
2022/09/19 01:08:52;;;;;;;1.5;0.6;;;;;;;;;;;;;
2022/09/19 01:11:18;;;;;;;0.8;0.8;;;;;;;;;;;;;
2022/09/19 01:13:43;;;;;;;1.1;0.8;;;;;;;;;;;;;
2022/09/19 01:16:08;;;;;;;1.6;0.7;;;;;;;;;;;;;
2022/09/19 01:18:33;;;;;;;2.4;1.2;;;;;;;;;;;;;
2022/09/19 01:20:58;;;;;;;1;0.7;;;;;;;;;;;;;
2022/09/19 01:23:24;;;;;;;1.8;0.6;;;;;;;;;;;;;
2022/09/19 01:25:51;;;;;;;2.2;0.7;;;;;;;;;;;;;
2022/09/19 01:28:19;;;;;;;1;0.9;;;;;;;;;;;;;
2022/09/19 01:30:41;;;;;;;1.6;0.8;;;;;;;;;;;;;
2022/09/19 01:33:06;;;;;;;0.9;0.8;;;;;;;;;;;;;
2022/09/19 01:35:31;;;;;;;1;0.9;;;;;;;;;;;;;
2022/09/19 01:37:56;;;;;;;2.6;1;;;;;;;;;;;;;
2022/09/19 01:40:22;;;;;;;2.2;1;;;;;;;;;;;;;
2022/09/19 01:42:48;;;;;;;1;0.9;;;;;;;;;;;;;
2022/09/19 01:45:13;;;;;;;0.7;0.7;;;;;;;;;;;;;
2022/09/19 01:47:39;;;;;;;1;0.7;;;;;;;;;;;;;
2022/09/19 01:50:04;;;;;;;0.6;0.6;;;;;;;;;;;;;
2022/09/19 01:52:29;;;;;;;0.8;0.8;;;;;;;;;;;;;
2022/09/19 01:54:54;;;;;;;0.8;0.7;;;;;;;;;;;;;
2022/09/19 01:57:21;;;;;;;1.1;0.8;;;;;;;;;;;;;
2022/09/19 01:59:47;;;;;;;1.2;0.9;;;;;;;;;;;;;
2022/09/19 02:02:14;;;;;;;1.4;0.9;;;;;;;;;;;;;
2022/09/19 02:04:43;;;;;;;1.2;1.1;;;;;;;;;;;;;
2022/09/19 02:07:06;;;;;;;1.9;0.9;;;;;;;;;;;;;
2022/09/19 02:12:03;;;;;;;1.3;0.9;;;;;;;;;;;;;
2022/09/19 02:14:28;;;;;;;1.1;0.8;;;;;;;;;;;;;
2022/09/19 02:16:53;;;;;;;1;0.9;;;;;;;;;;;;;
2022/09/19 02:19:18;;;;;;;1.4;0.6;;;;;;;;;;;;;
2022/09/19 02:21:45;;;;;;;1.1;0.7;;;;;;;;;;;;;
2022/09/19 02:24:10;;;;;;;1;0.9;;;;;;;;;;;;;
2022/09/19 02:26:35;;;;;;;2.7;0.7;;;;;;;;;;;;;
2022/09/19 02:29:01;;;;;;;1;0.8;;;;;;;;;;;;;
2022/09/19 02:31:26;;;;;;;1.6;0.8;;;;;;;;;;;;;
2022/09/19 02:33:52;;;;;;;0.7;0.7;;;;;;;;;;;;;
2022/09/19 02:36:17;;;;;;;1.6;0.8;;;;;;;;;;;;;
2022/09/19 02:38:42;;;;;;;1.2;0.8;;;;;;;;;;;;;
2022/09/19 02:41:07;;;;;;;0.7;0.7;;;;;;;;;;;;;
2022/09/19 02:43:36;;;;;;;2.1;0.7;;;;;;;;;;;;;
2022/09/19 02:46:01;;;;;;;0.8;0.6;;;;;;;;;;;;;
2022/09/19 02:48:25;;;;;;;0.8;0.8;;;;;;;;;;;;;
2022/09/19 02:50:50;;;;;;;0.6;0.6;;;;;;;;;;;;;
2022/09/19 02:53:16;;;;;;;0.9;0.6;;;;;;;;;;;;;
2022/09/19 02:55:45;;;;;;;0.5;0.5;;;;;;;;;;;;;
2022/09/19 02:58:07;;;;;;;0.6;0.5;;;;;;;;;;;;;
2022/09/19 03:00:32;;;;;;;0.8;0.8;;;;;;;;;;;;;
2022/09/19 03:02:58;;;;;;;0.7;0.6;;;;;;;;;;;;;
2022/09/19 03:05:22;;;;;;;0.5;0.5;;;;;;;;;;;;;
2022/09/19 03:07:48;;;;;;;0.4;0.4;;;;;;;;;;;;;
2022/09/19 03:10:14;;;;;;;0.4;0.4;;;;;;;;;;;;;
2022/09/19 03:12:40;;;;;;;0.5;0.5;;;;;;;;;;;;;
2022/09/19 03:15:05;;;;;;;0.9;0.4;;;;;;;;;;;;;
2022/09/19 03:17:33;;;;;;;0.3;0.3;;;;;;;;;;;;;
2022/09/19 03:19:58;;;;;;;0.4;0.4;;;;;;;;;;;;;
2022/09/19 03:22:25;;;;;;;0.5;0.4;;;;;;;;;;;;;
2022/09/19 03:24:49;;;;;;;0.6;0.6;;;;;;;;;;;;;
2022/09/19 03:27:14;;;;;;;0.6;0.4;;;;;;;;;;;;;
2022/09/19 03:29:39;;;;;;;0.6;0.5;;;;;;;;;;;;;
2022/09/19 03:32:04;;;;;;;0.9;0.5;;;;;;;;;;;;;
2022/09/19 03:34:32;;;;;;;0.7;0.5;;;;;;;;;;;;;
2022/09/19 03:36:54;;;;;;;0.5;0.3;;;;;;;;;;;;;
2022/09/19 03:39:20;;;;;;;0.2;0.2;;;;;;;;;;;;;
2022/09/19 03:41:45;;;;;;;0.6;0.2;;;;;;;;;;;;;
2022/09/19 03:44:12;;;;;;;0.2;0.2;;;;;;;;;;;;;
2022/09/19 03:46:36;;;;;;;1.9;0.4;;;;;;;;;;;;;
2022/09/19 03:49:17;;;;;;;0.5;0.3;;;;;;;;;;;;;
2022/09/19 03:51:42;;;;;;;0.6;0.4;;;;;;;;;;;;;
2022/09/19 03:54:08;;;;;;;0.4;0.2;;;;;;;;;;;;;
2022/09/19 03:56:33;;;;;;;0.2;0.2;;;;;;;;;;;;;
2022/09/19 03:58:58;;;;;;;0.2;0.2;;;;;;;;;;;;;
2022/09/19 04:02:33;;;;;;;0.3;0.3;;;;;;;8.5;93.4668;937.8056;;;;
2022/09/19 04:05:03;;;;;;;1.1;1.1;;;;;;;8.64;92.39551;937.6201;;;;
2022/09/19 04:07:28;;;;;;;2;1;;;;;;;8.7;92.44238;937.8004;;;;
2022/09/19 04:09:54;;;;;;;0.8;0.8;;;;;;;8.75;92.63477;937.7495;;;;
2022/09/19 04:12:19;;;;;;;0.7;0.6;;;;;;;8.78;92.29004;937.7327;;;;
2022/09/19 04:14:44;;;;;;;0.7;0.5;;;;;;;8.84;91.99609;937.818;;;;
2022/09/19 04:17:15;;;;;;;0.9;0.9;;;;;;;8.87;91.72656;937.8453;;;;
2022/09/19 04:19:42;;;;;;;1.4;0.8;;;;;;;8.89;92.33594;937.8075;;;;
2022/09/19 04:22:07;;;;;;;1;0.5;;;;;;;8.74;92.66602;937.7605;;;;
2022/09/19 04:24:32;;;;;;;0.6;0.6;;;;;;;8.76;91.2832;937.6647;;;;
2022/09/19 04:27:02;;;;;;;1.8;1.3;;;;;;;8.63;92.47266;937.8072;;;;
2022/09/19 04:29:26;;;;;;;0.7;0.7;;;;;;;8.58;92.96094;937.772;;;;
2022/09/19 04:31:54;;;;;;;2.1;2;;;;;;;8.58;93.29297;937.7522;;;;
2022/09/19 04:34:19;;;;;;;3;2.8;;;;;;;8.54;93.23926;937.7222;;;;
2022/09/19 04:36:47;;;;;;;1.8;1.4;;;;;;;8.43;93.37305;937.7236;;;;
2022/09/19 04:39:11;;;;;;;0.8;0.8;;;;;;;8.54;92.76172;937.6414;;;;
2022/09/19 04:41:43;;;;;;;1;1;;;;;;;8.73;92.70996;937.6523;;;;
2022/09/19 04:44:13;;;;;;;0.6;0.6;;;;;;;8.7;92.7041;937.7646;;;;
2022/09/19 04:46:47;;;;;;;0.8;0.5;;;;;;;8.65;93.62695;937.741;;;;
2022/09/19 04:49:18;;;;;;;1.1;0.7;;;;;;;8.66;94.08105;937.8418;;;;
2022/09/19 04:51:46;;;;;;;0.8;0.4;;;;;;;8.62;93.75488;937.8428;;;;
2022/09/19 04:54:11;;;;;;;1.1;0.6;;;;;;;8.67;93.11914;937.8405;;;;
2022/09/19 04:56:36;;;;;;;0.7;0.7;;;;;;;8.7;92.88574;937.867;;;;
2022/09/19 04:59:03;;;;;;;1.1;0.5;;;;;;;8.63;90.91504;937.8992;;;;
2022/09/19 05:01:36;;;;;;;1.4;0.7;;;;;;;8.57;92.2334;938.0362;;;;
2022/09/19 05:04:08;;;;;;;1.6;0.9;;;;;;;8.51;93.33398;937.9875;;;;
2022/09/19 05:06:35;;;;;;;2.6;1.9;;;;;;;8.62;93.57324;938.1094;;;;
2022/09/19 05:09:00;;;;;;;1.3;1;;;;;;;8.57;93.7793;938.1806;;;;
2022/09/19 05:11:27;;;;;;;0.7;0.7;;;;;;;8.59;92.59961;938.18;;;;
2022/09/19 05:13:54;;;;;;;0.7;0.7;;;;;;;8.52;92.79004;938.2225;;;;
2022/09/19 05:16:18;;;;;;;0.7;0.6;;;;;;;8.43;93.18945;938.3003;;;;
2022/09/19 05:18:49;;;;;;;0.7;0.6;;;;;;;8.54;93.91895;938.2841;;;;
2022/09/19 05:21:19;;;;;;;0.8;0.5;;;;;;;8.66;93.18359;938.3474;;;;
2022/09/19 05:24:37;;;;;;;2.9;0.8;;;;;;;8.74;92.90723;938.3925;;;;
2022/09/19 05:27:05;;;;;;;0.9;0.8;;;;;;;8.76;91.8418;938.5103;;;;
2022/09/19 05:29:31;;;;;;;0.6;0.6;;;;;;;8.82;91.66016;938.5798;;;;
2022/09/19 05:32:02;;;;;;;1.4;1.3;;;;;;;8.77;92.67188;938.6414;;;;
2022/09/19 05:34:29;;;;;;;1.2;1.1;;;;;;;8.75;93.10059;938.6578;;;;
2022/09/19 05:36:55;;;;;;;0.8;0.8;;;;;;;8.83;92.59473;938.6824;;;;
2022/09/19 05:39:27;;;;;;;1.7;1.6;;;;;;;8.93;92.24316;938.6713;;;;
2022/09/19 05:41:58;;;;;;;1.5;1.4;;;;;;;8.92;92.25;938.733;;;;
2022/09/19 05:44:30;;;;;;;1.4;1.3;;;;;;;8.69;93.17969;938.8552;;;;
2022/09/19 05:46:57;;;;;;;0.8;0.8;;;;;;;8.72;94.40234;938.8937;;;;
2022/09/19 05:49:20;;;;;;;1.2;0.8;;;;;;;8.86;92.9209;938.8376;;;;
2022/09/19 05:51:45;;;;;;;0.9;0.9;;;;;;;8.99;91.63086;938.8089;;;;
2022/09/19 05:54:12;;;;;;;2.4;1.8;;;;;;;9.03;92.16211;938.9933;;;;
2022/09/19 05:56:37;;;;;;;3.6;3.4;;;;;;;8.87;93.0918;938.9584;;;;
2022/09/19 05:59:04;;;;;;;1.1;0.8;;;;;;;8.88;92.09473;938.9579;;;;
2022/09/19 06:01:29;;;;;;;6.8;6.2;;;;;;;8.96;92.57617;939.1061;;;;
2022/09/19 06:03:54;;;;;;;2.1;2;;;;;;;8.99;92.30176;939.0995;;;;
2022/09/19 06:06:24;;;;;;;2.1;1.4;;;;;;;9.06;92.29297;939.0795;;;;
2022/09/19 06:08:49;;;;;;;2.1;2;;;;;;;9;92.99805;939.1434;;;;
2022/09/19 06:11:16;;;;;;;1.9;1.8;;;;;;;8.99;92.08594;939.2251;;;;
2022/09/19 06:16:08;;;;;;;1.3;1.2;;;;;;;8.98;92.51465;939.2963;;;;
2022/09/19 06:18:34;;;;;;;1.7;0.9;;;;;;;9;91.42773;939.2736;;;;
2022/09/19 06:21:09;;;;;;;1.3;1.2;;;;;;;9.07;91.81445;939.3076;;;;
2022/09/19 06:23:37;;;;;;;1.9;1.3;;;;;;;9.11;92.37109;939.3431;;;;
2022/09/19 06:26:03;;;;;;;4.2;3.9;;;;;;;9.07;92.78613;939.4182;;;;
2022/09/19 06:28:28;;;;;;;1.5;1.4;;;;;;;8.98;92.68457;939.4664;;;;
2022/09/19 06:30:53;;;;;;;2.9;2;;;;;;;9.07;92.10156;939.3084;;;;
2022/09/19 06:33:18;;;;;;;1.5;1.4;;;;;;;9.26;91.26465;939.3579;;;;
2022/09/19 06:35:43;;;;;;;2.7;1.8;;;;;;;9.39;90.10742;939.3495;;;;
2022/09/19 06:38:12;;;;;;;2.5;2.3;;;;;;;9.51;90.46387;939.4558;;;;
2022/09/19 06:40:43;;;;;;;2.3;2.1;;;;;;;9.64;90.52539;939.5128;;;;
2022/09/19 06:43:07;;;;;;;1.7;1.6;;;;;;;9.87;90.74512;939.464;;;;
2022/09/19 06:45:37;;;;;;;1.7;1.2;;;;;;;9.66;88.02344;939.5212;;;;
2022/09/19 06:47:59;;;;;;;1.7;1.6;;;;;;;9.67;88.69629;939.5261;;;;
2022/09/19 06:50:28;;;;;;;3.7;3.3;;;;;;;9.78;88.7207;939.5252;;;;
2022/09/19 06:52:53;;;;;;;2.5;1.7;;;;;;;9.45;89.1543;939.5536;;;;
2022/09/19 06:55:23;;;;;;;1.9;1.6;;;;;;;9.69;88.99609;939.663;;;;
2022/09/19 06:57:46;;;;;;;5.5;5.1;;;;;;;9.91;89.56738;939.7262;;;;
2022/09/19 07:00:15;;;;;;;3.9;3.4;;;;;;;10.02;89.30664;939.7814;;;;
2022/09/19 07:02:44;;;;;;;2.4;1.5;;;;;;;10.06;86.08398;939.7883;;;;
2022/09/19 07:05:12;;;;;;;2;1.8;;;;;;;9.96;87.76367;939.7953;;;;
2022/09/19 07:08:02;;;;;;;1.1;0.8;;;;;;;9.87;82.11523;939.647;;;;
2022/09/19 07:10:33;;;;;;;2.9;1.9;;;;;;;10.05;83.16309;939.8533;;;;
2022/09/19 07:13:01;;;;;;;1.8;1.5;;;;;;;10.32;84.42676;939.8361;;;;
2022/09/19 07:15:38;;;;;;;1.8;1.5;;;;;;;10.43;86.53711;939.9523;;;;
2022/09/19 07:18:10;;;;;;;1.1;1;;;;;;;10.24;86.52148;939.9417;;;;
2022/09/19 07:20:32;;;;;;;1.6;1;;;;;;;10.42;85.55273;939.9666;;;;
2022/09/19 07:23:00;;;;;;;1.4;0.9;;;;;;;10.59;84.13477;940.0012;;;;
2022/09/19 07:25:24;;;;;;;1;0.9;;;;;;;10.76;86.14453;940.1007;;;;
2022/09/19 07:27:53;;;;;;;0.9;0.8;;;;;;;11.44;85.73047;940.0586;;;;
2022/09/19 07:30:18;;;;;;;2.9;1.6;;;;;;;12.43;78.62402;940.0178;;;;
2022/09/19 07:32:46;;;;;;;1.6;1.5;;;;;;;12.99;74.66895;940.074;;;;
2022/09/19 07:35:11;;;;;;;1.5;1.4;;;;;;;13.45;71.10547;940.0714;;;;
2022/09/19 07:37:38;;;;;;;1;0.9;;;;;;;13.95;70.20801;940.1602;;;;
2022/09/19 07:40:03;;;;;;;1.2;0.6;;;;;;;14.55;60.47461;940.1316;;;;
2022/09/19 07:42:28;;;;;;;0.7;0.6;;;;;;;16.02;61.18848;940.272;;;;
2022/09/19 07:44:54;;;;;;;1.9;0.5;;;;;;;16.99;54.97266;940.2605;;;;
2022/09/19 07:47:28;;;;;;;1.3;0.5;;;;;;;16.14;49.99805;940.2645;;;;
2022/09/19 07:49:44;;;;;;;3;0.6;;;;;;;16.84;55.80078;940.2637;;;;
2022/09/19 07:52:11;;;;;;;1.9;0.7;;;;;;;18.79;51.33691;940.2833;;;;
2022/09/19 07:54:36;;;;;;;0.9;0.4;;;;;;;19.62;46.75879;940.3315;;;;
2022/09/19 07:57:03;;;;;;;1.9;0.4;;;;;;;19.85;46.10547;940.3569;;;;
2022/09/19 07:59:28;;;;;;;0.9;0.4;;;;;;;19.87;44.73145;940.4316;;;;
2022/09/19 08:02:00;;;;;;;0.9;0.5;;;;;;;18.02;47.15723;940.3953;;;;
2022/09/19 08:04:27;;;;;;;1.8;1;;;;;;;17.06;50.51953;940.4546;;;;
2022/09/19 08:07:00;;;;;;;3.2;1.3;;;;;;;17.44;52.31543;940.4849;;;;
2022/09/19 08:09:25;;;;;;;3.3;1.4;;;;;;;17.39;51.23047;940.5489;;;;
2022/09/19 08:11:57;;;;;;;1.5;0.7;;;;;;;17.08;52.30762;940.551;;;;
2022/09/19 08:14:27;;;;;;;0.7;0.3;;;;;;;16.01;53.20801;940.565;;;;
2022/09/19 08:16:53;;;;;;;2.7;0.7;;;;;;;15;60.2959;940.6131;;;;
2022/09/19 08:19:20;;;;;;;1.2;0.5;;;;;;;16.18;56.16699;940.5887;;;;
2022/09/19 08:21:44;;;;;;;1.2;0.5;;;;;;;16.14;55.3877;940.6494;;;;
2022/09/19 08:24:11;;;;;;;1.6;0.7;;;;;;;16.12;55.33789;940.6125;;;;
2022/09/19 08:26:36;;;;;;;1.8;0.7;;;;;;;16.51;52.59863;940.6459;;;;
2022/09/19 08:29:03;;;;;;;1.5;0.5;;;;;;;16.31;52.00781;940.6643;;;;
2022/09/19 08:31:28;;;;;;;1.6;0.7;;;;;;;16.28;52.83594;940.7048;;;;
2022/09/19 08:33:56;;;;;;;1.8;0.7;;;;;;;16.7;51.63672;940.5731;;;;
2022/09/19 08:36:20;;;;;;;2.2;0.9;;;;;;;16.42;52.22852;940.6175;;;;
2022/09/19 08:38:48;;;;;;;1.6;0.7;;;;;;;17.11;50.93262;940.5875;;;;
2022/09/19 08:41:13;;;;;;;1.4;0.7;;;;;;;17.79;48.79395;940.5933;;;;
2022/09/19 08:43:38;;;;;;;1;0.4;;;;;;;19.08;44.54688;940.6294;;;;
2022/09/19 08:46:04;;;;;;;2.4;0.6;;;;;;;19.1;43.48926;940.6685;;;;
2022/09/19 08:48:32;;;;;;;0.9;0.5;;;;;;;19.14;42.66602;940.6241;;;;
2022/09/19 08:50:57;;;;;;;1.5;0.7;;;;;;;19.02;46.18164;940.6489;;;;
2022/09/19 08:53:22;;;;;;;1.7;0.8;;;;;;;20.16;42.81152;940.6443;;;;
2022/09/19 08:55:50;;;;;;;1;0.6;;;;;;;21.23;41.23047;940.6379;;;;
2022/09/19 08:58:17;;;;;;;1.8;0.6;;;;;;;20.21;41.80176;940.5985;;;;
2022/09/19 09:00:46;;;;;;;0.5;0.5;;;;;;;21.07;42.7832;940.6017;;;;
2022/09/19 09:03:11;;;;;;;0.7;0.5;;;;;;;21.14;39.83008;940.642;;;;
2022/09/19 09:05:40;;;;;;;1.7;0.5;;;;;;;20.05;39.9082;940.6467;;;;
2022/09/19 09:08:05;;;;;;;1.1;0.7;;;;;;;18.42;43.52637;940.7303;;;;
2022/09/19 09:10:31;;;;;;;1.2;0.5;;;;;;;16.6;48.33594;940.7632;;;;
2022/09/19 09:12:59;;;;;;;0.5;0.5;;;;;;;16.73;49.47461;940.7657;;;;
2022/09/19 09:15:25;;;;;;;2.3;0.8;;;;;;;16.27;51.13477;940.7739;;;;
2022/09/19 09:17:51;;;;;;;1.8;0.7;;;;;;;15.51;52.75488;940.7497;;;;
2022/09/19 09:20:16;;;;;;;1.2;0.7;;;;;;;16.05;51.87402;940.7031;;;;
2022/09/19 09:22:49;;;;;;;1.4;0.5;;;;;;;16.17;51.15723;940.6676;;;;
2022/09/19 09:25:14;;;;;;;2.1;0.5;;;;;;;16.21;50.49219;940.6801;;;;
2022/09/19 09:27:45;;;;;;;1.2;0.6;;;;;;;16.15;51.4209;940.6606;;;;
2022/09/19 09:30:16;;;;;;;1;0.7;;;;;;;15.89;53.58691;940.6373;;;;
2022/09/19 09:32:36;;;;;;;1.5;0.7;;;;;;;16.43;50.54004;940.6588;;;;
2022/09/19 09:35:01;;;;;;;1.4;0.6;;;;;;;16.54;50.00879;940.5323;;;;
2022/09/19 09:37:32;;;;;;;2.7;0.6;;;;;;;16.19;50.17676;940.5887;;;;
2022/09/19 09:40:09;;;;;;;1.2;0.7;;;;;;;16.07;50.79883;940.5182;;;;
2022/09/19 09:42:32;;;;;;;1.8;1;;;;;;;16.07;51.89844;940.5133;;;;
2022/09/19 09:44:56;;;;;;;2;0.9;;;;;;;15.84;53.7207;940.6281;;;;
2022/09/19 09:47:24;;;;;;;1.6;0.9;;;;;;;15.48;53.16797;940.6398;;;;
2022/09/19 09:49:46;;;;;;;0.8;0.7;;;;;;;15.51;51.56543;940.5603;;;;
2022/09/19 09:52:17;;;;;;;0.9;0.7;;;;;;;15.71;54.22363;940.6462;;;;
2022/09/19 09:57:09;;;;;;;2.4;0.8;;;;;;;15.3;51.45898;940.5652;;;;
2022/09/19 10:04:24;;;;;;;10.4;4.2;;;;;;;15.6;53.81738;940.572;;;;
2022/09/19 10:06:53;;;;;;;7;3;;;;;;;15.97;51.36621;940.5251;;;;
2022/09/19 10:09:18;;;;;;;6.8;2.6;;;;;;;15.96;51.3418;940.4568;;;;
2022/09/19 10:11:44;;;;;;;3.6;2.3;;;;;;;15.25;56.49805;940.6175;;;;
2022/09/19 10:14:12;;;;;;;0.5;0.5;;;;;;;14.8;52.02344;940.507;;;;
2022/09/19 10:16:34;;;;;;;0.8;0.6;;;;;;;15.27;52.53125;940.335;;;;
2022/09/19 10:19:04;;;;;;;0.9;0.7;;;;;;;15.49;50.38574;940.4063;;;;
2022/09/19 10:21:26;;;;;;;0.9;0.8;;;;;;;15.14;54.92773;940.5287;;;;
2022/09/19 10:23:52;;;;;;;1.1;0.7;;;;;;;15.03;51.10547;940.4666;;;;
2022/09/19 10:26:22;;;;;;;0.8;0.6;;;;;;;15.36;50.18555;940.4341;;;;
2022/09/19 10:28:46;;;;;;;1.8;0.4;;;;;;;15.29;51.91992;940.4368;;;;
2022/09/19 10:31:12;;;;;;;1;0.5;;;;;;;15.32;52.44434;940.3981;;;;
2022/09/19 10:33:39;;;;;;;0.6;0.4;;;;;;;15.7;50.91895;940.3862;;;;
2022/09/19 10:36:02;;;;;;;1.1;0.8;;;;;;;15.53;55.27539;940.4325;;;;
2022/09/19 10:38:29;;;;;;;0.9;0.6;;;;;;;15.26;51.27148;940.4714;;;;
2022/09/19 10:40:58;;;;;;;1.3;0.5;;;;;;;15.14;52.68848;940.3979;;;;
2022/09/19 10:43:24;;;;;;;1.7;0.7;;;;;;;15.27;52.91211;940.5059;;;;
2022/09/19 10:45:49;;;;;;;0.7;0.5;;;;;;;15.4;49.13965;940.4916;;;;
2022/09/19 10:48:15;;;;;;;1.4;0.6;;;;;;;15.25;48.52246;940.4659;;;;
2022/09/19 10:50:39;;;;;;;0.9;0.7;;;;;;;15.1;54.62012;940.4839;;;;
2022/09/19 10:53:08;;;;;;;0.5;0.4;;;;;;;15.16;53.77539;940.4403;;;;
2022/09/19 10:55:38;;;;;;;0.5;0.5;;;;;;;15.29;48.2041;940.4543;;;;
2022/09/19 10:58:05;;;;;;;0.9;0.4;;;;;;;15.57;49.04395;940.4756;;;;
2022/09/19 11:00:34;;;;;;;0.8;0.5;;;;;;;15.56;50.68164;940.4821;;;;
2022/09/19 11:02:59;;;;;;;0.8;0.6;;;;;;;15.15;50.51953;940.4933;;;;
2022/09/19 11:05:25;;;;;;;0.7;0.4;;;;;;;15.47;49.37891;940.5332;;;;
2022/09/19 11:07:53;;;;;;;2.6;0.5;;;;;;;15.59;46.62012;940.5617;;;;
2022/09/19 11:10:16;;;;;;;1.6;0.6;;;;;;;15.26;52.3916;940.5709;;;;
2022/09/19 11:16:22;;;;;;;0.9;0.6;;;;;;;14.78;52.65527;940.5327;;;;
2022/09/19 11:18:53;;;;;;;0.6;0.6;;;;;;;14.93;55.90332;940.5325;;;;
2022/09/19 11:21:17;;;;;;;2;0.5;;;;;;;14.49;50.48926;940.3857;;;;
2022/09/19 11:23:56;;;;;;;1.9;0.6;;;;;;;14.54;51.7627;940.4305;;;;
2022/09/19 11:26:19;;;;;;;1.3;0.8;;;;;;;14.93;54.58789;940.4748;;;;
2022/09/19 11:28:45;;;;;;;1;0.7;;;;;;;15.31;51.16016;940.4175;;;;
2022/09/19 11:31:09;;;;;;;1.1;0.6;;;;;;;15.52;52.56152;940.4944;;;;
2022/09/19 11:33:35;;;;;;;1.7;0.7;;;;;;;15.58;51.75879;940.478;;;;
2022/09/19 11:36:00;;;;;;;1;0.8;;;;;;;15.77;51.21387;940.4933;;;;
2022/09/19 11:38:28;;;;;;;2.1;1;;;;;;;16.13;48.19238;940.4077;;;;
2022/09/19 11:40:52;;;;;;;1.1;0.4;;;;;;;16.36;47.58105;940.4034;;;;
2022/09/19 11:43:17;;;;;;;1.6;1.1;;;;;;;16.18;49.51758;940.3959;;;;
2022/09/19 11:45:43;;;;;;;0.8;0.2;;;;;;;16.09;48.37402;940.3911;;;;
2022/09/19 11:48:08;;;;;;;1.1;0.4;;;;;;;16.04;45.88184;940.3465;;;;
2022/09/19 11:50:36;;;;;;;0.4;0.4;;;;;;;15.35;50.27637;940.3499;;;;
2022/09/19 11:52:58;;;;;;;0.5;0.4;;;;;;;15.34;50.86523;940.3402;;;;
2022/09/19 11:55:27;;;;;;;0.8;0.3;;;;;;;15.83;48.52832;940.2805;;;;
2022/09/19 11:57:50;;;;;;;0.5;0.3;;;;;;;15.81;50.54883;940.2787;;;;
2022/09/19 12:00:17;;;;;;;0.5;0.4;;;;;;;15.77;47.77148;940.2605;;;;
2022/09/19 12:02:45;;;;;;;1.3;0.6;;;;;;;15.64;43.32129;940.3047;;;;
2022/09/19 12:05:17;;;;;;;1.4;0.4;;;;;;;15.62;47.44336;940.2303;;;;
2022/09/19 12:07:41;;;;;;;1.3;0.5;;;;;;;15.64;45.81738;940.2148;;;;
2022/09/19 12:10:05;;;;;;;1.3;0.5;;;;;;;15.6;48.19141;940.2566;;;;
2022/09/19 12:12:30;;;;;;;1.4;0.5;;;;;;;15.86;46.46387;940.1461;;;;
2022/09/19 12:14:58;;;;;;;0.6;0.6;;;;;;;15.91;46.45703;940.1433;;;;
2022/09/19 12:17:28;;;;;;;0.4;0.3;;;;;;;15.5;47.10645;940.1253;;;;
2022/09/19 12:19:58;;;;;;;1.4;0.4;;;;;;;15.59;48.98828;940.048;;;;
2022/09/19 12:22:24;;;;;;;0.6;0.4;;;;;;;15.92;47.51074;940.0524;;;;
2022/09/19 12:24:58;;;;;;;0.6;0.5;;;;;;;15.96;47.0752;940.0433;;;;
2022/09/19 12:27:15;;;;;;;1.5;0.4;;;;;;;15.78;45.75;939.9641;;;;
2022/09/19 12:29:40;;;;;;;1.2;0.6;;;;;;;15.86;44.75293;939.9832;;;;
2022/09/19 12:32:06;;;;;;;1.5;0.5;;;;;;;15.95;49.31738;939.9928;;;;
2022/09/19 12:34:32;;;;;;;1.9;0.6;;;;;;;16;49.72754;940.0036;;;;
2022/09/19 12:36:56;;;;;;;0.5;0.4;;;;;;;15.9;49.49609;939.9683;;;;
2022/09/19 12:39:21;;;;;;;0.6;0.3;;;;;;;15.99;49.47168;939.9965;;;;
2022/09/19 12:41:47;;;;;;;0.5;0.4;;;;;;;15.84;44.0918;939.948;;;;
2022/09/19 12:44:13;;;;;;;0.9;0.5;;;;;;;15.88;45.4375;939.9227;;;;
2022/09/19 12:46:37;;;;;;;5.2;1.6;;;;;;;17.12;47.07324;939.884;;;;
2022/09/19 12:49:03;;;;;;;0.6;0.5;;;;;;;16.97;45.2832;939.8681;;;;
2022/09/19 12:51:28;;;;;;;0.8;0.3;;;;;;;16.33;46.09668;939.8139;;;;
2022/09/19 12:53:53;;;;;;;0.7;0.4;;;;;;;16.84;45.65234;939.8223;;;;
2022/09/19 12:56:19;;;;;;;0.4;0.3;;;;;;;18.43;43.70215;939.7838;;;;
2022/09/19 12:58:44;;;;;;;0.5;0.3;;;;;;;18.26;43.06836;939.789;;;;
2022/09/19 13:01:09;;;;;;;1.1;0.5;;;;;;;17.82;44.54688;939.7554;;;;
2022/09/19 13:03:35;;;;;;;1;0.5;;;;;;;17.96;47.73242;939.82;;;;
2022/09/19 13:05:59;;;;;;;0.4;0.3;;;;;;;19.46;45.37695;939.767;;;;
2022/09/19 13:08:24;;;;;;;0.6;0.5;;;;;;;18.11;41.28809;939.6841;;;;
2022/09/19 13:10:49;;;;;;;0.8;0.4;;;;;;;17.71;42.0293;939.6747;;;;
2022/09/19 13:13:14;;;;;;;0.9;0.4;;;;;;;17.75;44.25;939.6693;;;;
2022/09/19 13:15:39;;;;;;;1.1;0.5;;;;;;;16.88;49.01563;939.7719;;;;
2022/09/19 13:25:20;;;;;;;0.8;0.7;;;;;;;16.99;50.12988;939.723;;;;
2022/09/19 13:27:46;;;;;;;2.2;1.3;;;;;;;17.19;44.82031;939.6916;;;;
2022/09/19 13:30:10;;;;;;;0.8;0.6;;;;;;;17.51;45.08496;939.5984;;;;
2022/09/19 13:32:37;;;;;;;0.7;0.4;;;;;;;18.2;43.91211;939.6912;;;;
2022/09/19 13:35:01;;;;;;;1.2;0.4;;;;;;;19.23;44.95703;939.5845;;;;
2022/09/19 13:37:26;;;;;;;1.9;0.5;;;;;;;18.51;39.24414;939.6113;;;;
2022/09/19 13:39:51;;;;;;;1.3;0.4;;;;;;;18.23;42.4502;939.6339;;;;
2022/09/19 13:42:16;;;;;;;1;0.4;;;;;;;17.88;38.98047;939.6248;;;;
2022/09/19 13:44:41;;;;;;;0.4;0.3;;;;;;;17.45;41.64453;939.6661;;;;
2022/09/19 13:47:07;;;;;;;0.9;0.4;;;;;;;17.43;42.88281;939.6495;;;;
2022/09/19 13:49:33;;;;;;;0.9;0.4;;;;;;;17.07;45.17871;939.6772;;;;
2022/09/19 13:51:59;;;;;;;0.7;0.4;;;;;;;17;45.2168;939.6456;;;;
2022/09/19 13:54:23;;;;;;;1.6;0.4;;;;;;;16.7;44.43359;939.6209;;;;
2022/09/19 13:56:51;;;;;;;0.6;0.5;;;;;;;16.37;48.625;939.6334;;;;
2022/09/19 13:59:18;;;;;;;0.7;0.5;;;;;;;16.49;47.72363;939.6395;;;;
2022/09/19 14:01:46;;;;;;;0.4;0.4;;;;;;;16.58;47.91699;939.6571;;;;
2022/09/19 14:04:55;;;;;;;0.7;0.6;;;;;;;16.62;49.1377;939.6013;;;;
2022/09/19 14:06:42;;;;;;;1.4;0.6;;;;;;;16.59;50.13086;939.6136;;;;
2022/09/19 14:09:07;;;;;;;1;0.6;;;;;;;16.38;50.04785;939.6052;;;;
2022/09/19 14:11:32;;;;;;;0.9;0.4;;;;;;;16.06;47.17871;939.5953;;;;
2022/09/19 14:14:51;;;;;;;2.2;0.8;;;;;;;15.95;48.99414;939.6531;;;;
2022/09/19 14:17:17;;;;;;;1.9;0.6;;;;;;;15.66;51.14355;939.6713;;;;
2022/09/19 14:19:44;;;;;;;0.6;0.5;;;;;;;15.78;49.39063;939.675;;;;
2022/09/19 14:22:09;;;;;;;1;0.4;;;;;;;15.53;52.64355;939.6652;;;;
2022/09/19 14:24:37;;;;;;;1.9;0.8;;;;;;;15.53;55.1709;939.6492;;;;
2022/09/19 14:27:00;;;;;;;0.7;0.4;;;;;;;15.59;51.77051;939.7197;;;;
2022/09/19 14:29:24;;;;;;;1;0.5;;;;;;;15.87;53.53711;939.6811;;;;
2022/09/19 14:31:49;;;;;;;1;0.8;;;;;;;16.04;52.62207;939.6951;;;;
2022/09/19 14:34:18;;;;;;;1.5;0.6;;;;;;;16.17;51.14648;939.6946;;;;
2022/09/19 14:36:40;;;;;;;1.7;0.8;;;;;;;16.17;52.10645;939.726;;;;
2022/09/19 14:39:05;;;;;;;1.8;0.9;;;;;;;16.16;51.35352;939.7405;;;;
2022/09/19 14:41:30;;;;;;;1;0.6;;;;;;;16.07;49.93164;939.6434;;;;
2022/09/19 14:43:55;;;;;;;2.2;0.4;;;;;;;15.98;50.04883;939.7073;;;;
2022/09/19 14:46:20;;;;;;;1;0.5;;;;;;;15.72;52.67676;939.7487;;;;
2022/09/19 14:48:50;;;;;;;1.3;1.2;;;;;;;15.29;50.32813;939.7733;;;;
2022/09/19 14:51:13;;;;;;;2;1.9;;;;;;;15.21;51.68164;939.7903;;;;
2022/09/19 14:53:40;;;;;;;1.3;0.9;;;;;;;15.42;53.01074;939.7904;;;;
2022/09/19 14:56:05;;;;;;;0.5;0.5;;;;;;;15.35;51.46582;939.8035;;;;
2022/09/19 14:58:31;;;;;;;0.4;0.4;;;;;;;15.49;49.79688;939.753;;;;
2022/09/19 15:00:56;;;;;;;1.1;0.8;;;;;;;15.41;50.51465;939.7083;;;;
2022/09/19 15:03:21;;;;;;;0.9;0.6;;;;;;;15.6;52.52344;939.8167;;;;
2022/09/19 15:05:46;;;;;;;0.6;0.5;;;;;;;15.68;53.38867;939.8132;;;;
2022/09/19 15:08:12;;;;;;;1.9;0.8;;;;;;;16.03;51.4873;939.7852;;;;
2022/09/19 15:10:40;;;;;;;1.2;0.9;;;;;;;16.35;49.58203;939.7213;;;;
2022/09/19 15:13:42;;;;;;;1.1;0.7;;;;;;;16.54;49.87012;939.7364;;;;
2022/09/19 15:16:07;;;;;;;0.4;0.4;;;;;;;16.54;49.15234;939.6528;;;;
2022/09/19 15:18:38;;;;;;;1.9;0.5;;;;;;;16.71;48.46582;939.6497;;;;
2022/09/19 15:21:02;;;;;;;0.3;0.3;;;;;;;16.51;49.24023;939.6756;;;;
2022/09/19 15:23:31;;;;;;;2.2;0.4;;;;;;;16.6;48.70605;939.7438;;;;
2022/09/19 15:25:56;;;;;;;0.9;0.5;;;;;;;16.68;47.84668;939.7515;;;;
2022/09/19 15:28:25;;;;;;;0.6;0.4;;;;;;;16.41;46.26758;939.7704;;;;
2022/09/19 15:30:49;;;;;;;1.6;0.7;;;;;;;16.48;46.50586;939.7516;;;;
2022/09/19 15:33:17;;;;;;;1.4;0.5;;;;;;;16.59;47.23633;939.7961;;;;
2022/09/19 15:35:42;;;;;;;0.6;0.6;;;;;;;16.42;46.52344;939.7849;;;;
2022/09/19 15:38:16;;;;;;;1;0.4;;;;;;;16.06;48.19629;939.764;;;;
2022/09/19 15:40:41;;;;;;;0.5;0.5;;;;;;;16.13;54.13867;939.8123;;;;
2022/09/19 15:43:06;;;;;;;1.4;0.4;;;;;;;16.12;48.53906;939.8116;;;;
2022/09/19 15:45:31;;;;;;;1;0.4;;;;;;;16.16;48.3457;939.8016;;;;
2022/09/19 15:47:56;;;;;;;0.3;0.3;;;;;;;16.2;49.0332;939.8036;;;;
2022/09/19 15:50:25;;;;;;;0.9;0.6;;;;;;;15.59;49.3457;939.8464;;;;
2022/09/19 15:52:50;;;;;;;0.5;0.4;;;;;;;15.51;53.87598;939.8901;;;;
2022/09/19 15:55:21;;;;;;;0.8;0.7;;;;;;;15.42;54.75488;939.9221;;;;
2022/09/19 15:57:46;;;;;;;0.6;0.5;;;;;;;15.58;54.04492;939.8976;;;;
2022/09/19 16:00:12;;;;;;;0.9;0.5;;;;;;;15.65;50.02344;939.9274;;;;
2022/09/19 16:02:38;;;;;;;0.9;0.3;;;;;;;15.7;48.26172;939.9358;;;;
2022/09/19 16:05:06;;;;;;;1;0.4;;;;;;;15.47;48.29297;939.8839;;;;